Time;durP1;ratioP1;P1;durP2;ratioP2;P2;SDS_P1;SDS_P2;PMS_P1;PMS_P2;Temp;Humidity;BMP_temperature;BMP_pressure;BME280_temperature;BME280_humidity;BME280_pressure;Samples;Min_cycle;Max_cycle;Signal;HPM_P1;HPM_P2
2024/02/04 00:02:25;;;;;;;68.10;29.60;;;10.50;99.90;;;;;;795655;180;26450;-77
2024/02/04 00:04:51;;;;;;;170.83;59.83;;;10.40;99.90;;;;;;806823;177;26412;-75
2024/02/04 00:07:18;;;;;;;111.53;42.50;;;10.40;99.90;;;;;;802802;179;26414;-76
2024/02/04 00:09:44;;;;;;;61.90;27.67;;;10.40;99.90;;;;;;807075;174;26478;-77
2024/02/04 00:12:11;;;;;;;84.53;37.23;;;10.20;99.90;;;;;;810757;176;26426;-78
2024/02/04 00:14:37;;;;;;;55.57;26.57;;;10.30;99.90;;;;;;810595;178;26421;-79
2024/02/04 00:17:04;;;;;;;81.17;38.87;;;10.20;99.90;;;;;;810396;178;26418;-79
2024/02/04 00:19:31;;;;;;;74.60;36.80;;;10.20;99.90;;;;;;809735;176;26438;-79
2024/02/04 00:21:57;;;;;;;43.47;24.60;;;10.20;99.90;;;;;;795734;175;26466;-77
2024/02/04 00:24:24;;;;;;;38.07;22.17;;;10.20;99.90;;;;;;810100;177;26462;-79
2024/02/04 00:26:50;;;;;;;39.40;21.83;;;10.20;99.90;;;;;;794305;180;26427;-79
2024/02/04 00:29:17;;;;;;;48.87;24.83;;;10.20;99.90;;;;;;803528;173;26430;-79
2024/02/04 00:31:44;;;;;;;48.37;25.37;;;10.20;99.90;;;;;;793450;179;26492;-79
2024/02/04 00:34:10;;;;;;;48.43;25.93;;;10.10;99.90;;;;;;794936;179;26427;-78
2024/02/04 00:36:37;;;;;;;58.90;30.37;;;10.20;99.90;;;;;;811300;177;26437;-80
2024/02/04 00:39:03;;;;;;;210.03;92.23;;;10.20;99.90;;;;;;809139;176;26448;-77
2024/02/04 00:41:30;;;;;;;100.97;46.57;;;10.20;99.90;;;;;;810026;174;26462;-79
2024/02/04 00:43:57;;;;;;;101.60;45.23;;;10.20;99.90;;;;;;807174;176;26435;-79
2024/02/04 00:46:23;;;;;;;59.57;31.87;;;10.20;99.90;;;;;;807660;177;26446;-80
2024/02/04 00:48:50;;;;;;;37.27;20.07;;;10.20;99.90;;;;;;809315;177;26481;-77
2024/02/04 00:51:17;;;;;;;45.60;25.30;;;10.20;99.90;;;;;;807291;176;26442;-79
2024/02/04 00:53:44;;;;;;;83.23;39.27;;;10.20;99.90;;;;;;788458;180;26460;-78
2024/02/04 00:56:11;;;;;;;67.97;33.70;;;10.20;99.90;;;;;;806456;176;28120;-78
2024/02/04 00:58:37;;;;;;;79.63;37.90;;;10.20;99.90;;;;;;809256;176;26458;-79
2024/02/04 01:01:04;;;;;;;56.90;28.77;;;10.20;99.90;;;;;;811594;173;26445;-79
2024/02/04 01:03:30;;;;;;;24.00;15.53;;;10.20;99.90;;;;;;810712;175;26443;-80
2024/02/04 01:05:57;;;;;;;26.03;15.17;;;10.20;99.90;;;;;;802849;178;26445;-81
2024/02/04 01:08:24;;;;;;;30.10;17.27;;;10.20;99.90;;;;;;810133;177;26420;-78
2024/02/04 01:10:51;;;;;;;55.17;27.77;;;10.20;99.90;;;;;;807987;174;26506;-79
2024/02/04 01:13:18;;;;;;;49.90;25.47;;;10.20;99.90;;;;;;801180;180;26422;-80
2024/02/04 01:15:45;;;;;;;37.47;19.10;;;10.20;99.90;;;;;;779021;181;26610;-79
2024/02/04 01:18:12;;;;;;;70.13;31.20;;;10.20;99.90;;;;;;808691;178;26437;-80
2024/02/04 01:20:38;;;;;;;47.53;21.83;;;10.20;99.90;;;;;;808516;175;26445;-80
2024/02/04 01:23:05;;;;;;;124.10;53.43;;;10.20;99.90;;;;;;795459;181;26437;-80
2024/02/04 01:25:32;;;;;;;84.70;37.57;;;10.20;99.90;;;;;;809943;177;26367;-80
2024/02/04 01:27:58;;;;;;;62.80;27.90;;;10.10;99.90;;;;;;810625;176;26424;-80
2024/02/04 01:30:25;;;;;;;34.20;19.63;;;10.10;99.90;;;;;;813089;173;26445;-80
2024/02/04 01:32:52;;;;;;;60.57;27.90;;;10.10;99.90;;;;;;812378;175;27738;-79
2024/02/04 01:35:18;;;;;;;61.97;29.87;;;10.10;99.90;;;;;;812790;175;26464;-80
2024/02/04 01:37:48;;;;;;;56.93;27.60;;;10.20;99.90;;;;;;806850;176;26440;-79
2024/02/04 01:40:12;;;;;;;40.93;18.80;;;10.20;99.90;;;;;;805769;176;26454;-79
2024/02/04 01:42:38;;;;;;;67.23;31.20;;;10.20;99.90;;;;;;811124;177;26421;-80
2024/02/04 01:45:05;;;;;;;69.57;34.07;;;10.10;99.90;;;;;;812135;176;26987;-82
2024/02/04 01:47:32;;;;;;;95.47;39.30;;;10.20;99.90;;;;;;810185;178;26438;-80
2024/02/04 01:49:58;;;;;;;95.47;41.60;;;10.10;99.90;;;;;;810324;178;26466;-80
2024/02/04 01:52:25;;;;;;;87.20;40.97;;;10.10;99.90;;;;;;810220;178;26454;-80
2024/02/04 01:54:52;;;;;;;69.23;31.93;;;10.10;99.90;;;;;;810936;176;26432;-79
2024/02/04 01:57:18;;;;;;;35.03;17.60;;;10.10;99.90;;;;;;808600;177;26473;-82
2024/02/04 01:59:45;;;;;;;32.57;16.63;;;10.20;99.90;;;;;;773026;186;26463;-81
2024/02/04 02:02:11;;;;;;;27.23;15.20;;;10.20;99.90;;;;;;788894;179;26452;-79
2024/02/04 02:04:38;;;;;;;23.67;13.70;;;10.20;99.90;;;;;;796003;180;26649;-81
2024/02/04 02:07:07;;;;;;;16.10;10.57;;;10.20;99.90;;;;;;798327;180;26447;-80
2024/02/04 02:09:32;;;;;;;57.23;21.87;;;10.20;99.90;;;;;;797418;179;26450;-80
2024/02/04 02:12:14;;;;;;;32.33;17.60;;;10.20;99.90;;;;;;802923;176;26470;-80
2024/02/04 02:14:42;;;;;;;16.83;9.10;;;10.20;99.90;;;;;;793207;180;26434;-79
2024/02/04 02:17:17;;;;;;;16.93;10.20;;;10.30;99.90;;;;;;797550;178;26433;-79
2024/02/04 02:19:47;;;;;;;11.30;7.27;;;10.30;99.90;;;;;;803231;177;26441;-81
2024/02/04 02:22:31;;;;;;;11.80;6.80;;;10.30;99.90;;;;;;815204;171;26428;-80
2024/02/04 02:24:59;;;;;;;18.77;10.57;;;10.30;99.90;;;;;;813901;176;26413;-81
2024/02/04 02:27:24;;;;;;;23.40;13.30;;;10.40;99.90;;;;;;813243;174;26423;-80
2024/02/04 02:29:51;;;;;;;14.03;8.10;;;10.40;99.90;;;;;;813713;174;26437;-77
2024/02/04 02:32:18;;;;;;;12.43;7.80;;;10.40;99.90;;;;;;798736;177;26474;-81
2024/02/04 02:34:44;;;;;;;15.03;9.40;;;10.40;99.90;;;;;;819704;175;26430;-79
2024/02/04 02:37:12;;;;;;;12.07;6.53;;;10.40;99.90;;;;;;815311;175;26427;-79
2024/02/04 02:39:41;;;;;;;11.10;7.37;;;10.40;99.90;;;;;;791224;179;26487;-80
2024/02/04 02:42:07;;;;;;;10.83;6.60;;;10.40;99.90;;;;;;814100;175;26431;-76
2024/02/04 02:44:34;;;;;;;15.53;9.07;;;10.40;99.90;;;;;;819571;176;26455;-80
2024/02/04 02:47:00;;;;;;;14.13;8.47;;;10.40;99.90;;;;;;800474;179;26425;-80
2024/02/04 02:49:27;;;;;;;18.87;10.23;;;10.40;99.90;;;;;;808892;174;26438;-81
2024/02/04 02:51:54;;;;;;;36.77;16.87;;;10.40;99.90;;;;;;793810;178;26442;-80
2024/02/04 02:54:20;;;;;;;34.30;17.00;;;10.40;99.90;;;;;;817443;175;26414;-80
2024/02/04 02:56:47;;;;;;;20.03;10.37;;;10.40;99.90;;;;;;797930;180;26473;-80
2024/02/04 02:59:13;;;;;;;24.10;11.67;;;10.40;99.90;;;;;;791395;180;26458;-78
2024/02/04 03:01:40;;;;;;;21.73;11.13;;;10.40;99.90;;;;;;802813;175;26448;-80
2024/02/04 03:04:07;;;;;;;15.47;8.80;;;10.40;99.90;;;;;;797231;178;26611;-79
2024/02/04 03:06:33;;;;;;;13.60;7.90;;;10.50;99.90;;;;;;793258;180;26437;-81
2024/02/04 03:09:00;;;;;;;14.90;7.90;;;10.40;99.90;;;;;;809440;176;26414;-79
2024/02/04 03:11:27;;;;;;;9.90;7.13;;;10.40;99.90;;;;;;794929;179;26453;-81
2024/02/04 03:13:53;;;;;;;10.97;7.10;;;10.40;99.90;;;;;;809585;176;26441;-81
2024/02/04 03:16:19;;;;;;;12.63;6.77;;;10.40;99.90;;;;;;809419;177;26400;-79
2024/02/04 03:18:46;;;;;;;18.47;9.83;;;10.50;99.90;;;;;;809456;177;26438;-80
2024/02/04 03:21:13;;;;;;;16.23;8.30;;;10.50;99.90;;;;;;793505;180;26452;-80
2024/02/04 03:23:39;;;;;;;26.23;14.77;;;10.50;99.90;;;;;;794674;180;26474;-78
2024/02/04 03:26:06;;;;;;;18.70;9.87;;;10.50;99.90;;;;;;803242;178;26998;-79
2024/02/04 03:28:33;;;;;;;16.47;8.70;;;10.50;99.90;;;;;;809503;178;26435;-80
2024/02/04 03:30:59;;;;;;;17.33;9.87;;;10.50;99.90;;;;;;809326;173;26458;-79
2024/02/04 03:33:26;;;;;;;11.47;7.40;;;10.50;99.90;;;;;;782216;183;26481;-80
2024/02/04 03:35:52;;;;;;;10.40;6.10;;;10.60;99.90;;;;;;811428;177;26567;-78
2024/02/04 03:38:19;;;;;;;10.30;6.80;;;10.60;99.90;;;;;;811673;177;26430;-79
2024/02/04 03:40:45;;;;;;;13.10;8.13;;;10.60;99.90;;;;;;810197;174;26453;-79
2024/02/04 03:43:12;;;;;;;12.77;8.13;;;10.60;99.90;;;;;;807179;177;26590;-79
2024/02/04 03:45:39;;;;;;;23.03;12.57;;;10.60;99.90;;;;;;795501;178;26456;-80
2024/02/04 03:48:06;;;;;;;22.03;12.47;;;10.60;99.90;;;;;;800173;179;26424;-80
2024/02/04 03:50:32;;;;;;;16.30;10.53;;;10.60;99.90;;;;;;798928;178;27060;-80
2024/02/04 03:52:59;;;;;;;17.67;10.50;;;10.60;99.90;;;;;;798726;175;26430;-81
2024/02/04 03:55:25;;;;;;;13.57;9.07;;;10.60;99.90;;;;;;803897;177;26634;-80
2024/02/04 03:57:52;;;;;;;13.93;7.93;;;10.70;99.90;;;;;;803518;179;26479;-80
2024/02/04 04:00:19;;;;;;;12.63;8.10;;;10.60;99.90;;;;;;801224;177;26460;-79
2024/02/04 04:02:45;;;;;;;11.70;8.00;;;10.60;99.90;;;;;;790995;181;26454;-77
2024/02/04 04:05:12;;;;;;;22.93;13.67;;;10.60;99.90;;;;;;800785;180;26493;-79
2024/02/04 04:07:39;;;;;;;20.13;12.30;;;10.60;99.90;;;;;;798187;180;26959;-77
2024/02/04 04:10:06;;;;;;;18.13;9.40;;;10.60;99.90;;;;;;797778;177;26458;-79
2024/02/04 04:12:33;;;;;;;16.07;10.67;;;10.60;99.90;;;;;;798614;179;26435;-78
2024/02/04 04:14:59;;;;;;;11.97;8.40;;;10.60;99.90;;;;;;797433;180;26435;-77
2024/02/04 04:17:26;;;;;;;12.43;8.50;;;10.70;99.90;;;;;;797574;180;26469;-80
2024/02/04 04:19:58;;;;;;;28.37;15.47;;;10.70;99.90;;;;;;794822;179;26452;-79
2024/02/04 04:22:25;;;;;;;31.70;15.87;;;10.70;99.90;;;;;;800189;177;26448;-80
2024/02/04 04:24:51;;;;;;;15.53;9.57;;;10.70;99.90;;;;;;798019;180;26432;-80
2024/02/04 04:27:18;;;;;;;25.40;13.80;;;10.70;99.90;;;;;;798082;180;26444;-77
2024/02/04 04:29:45;;;;;;;24.27;13.63;;;10.70;99.90;;;;;;799124;177;26427;-80
2024/02/04 04:32:11;;;;;;;18.50;11.30;;;10.80;99.90;;;;;;772792;185;26484;-80
2024/02/04 04:34:38;;;;;;;16.13;9.43;;;10.70;99.90;;;;;;780023;184;26486;-80
2024/02/04 04:37:04;;;;;;;10.87;7.67;;;10.70;99.90;;;;;;779807;185;26473;-80
2024/02/04 04:39:31;;;;;;;11.93;7.37;;;10.70;99.90;;;;;;782510;179;26489;-80
2024/02/04 04:41:58;;;;;;;9.17;6.70;;;10.80;99.90;;;;;;793846;177;26451;-80
2024/02/04 04:44:24;;;;;;;11.70;7.87;;;10.80;99.90;;;;;;810212;172;28011;-80
2024/02/04 04:46:51;;;;;;;9.93;7.10;;;10.80;99.90;;;;;;795067;180;26432;-80
2024/02/04 04:49:17;;;;;;;10.10;7.23;;;10.80;99.90;;;;;;801352;179;26423;-80
2024/02/04 04:51:46;;;;;;;10.40;7.40;;;10.80;99.90;;;;;;807346;174;26446;-80
2024/02/04 04:54:11;;;;;;;10.43;7.60;;;10.80;99.90;;;;;;808058;178;26437;-78
2024/02/04 04:56:39;;;;;;;12.77;7.87;;;10.80;99.90;;;;;;810970;176;26481;-81
2024/02/04 04:59:05;;;;;;;11.73;8.50;;;10.80;99.90;;;;;;810641;177;26429;-80
2024/02/04 05:01:32;;;;;;;12.53;8.80;;;10.80;99.90;;;;;;802754;176;26455;-79
2024/02/04 05:03:59;;;;;;;13.27;8.13;;;10.80;99.90;;;;;;801787;177;26439;-79
2024/02/04 05:06:25;;;;;;;15.93;9.77;;;10.80;99.90;;;;;;801789;178;26427;-80
2024/02/04 05:08:52;;;;;;;16.80;10.10;;;10.80;99.90;;;;;;804670;177;26429;-81
2024/02/04 05:11:18;;;;;;;20.40;11.53;;;10.80;99.90;;;;;;807250;174;26437;-78
2024/02/04 05:13:45;;;;;;;17.67;10.20;;;10.80;99.90;;;;;;789108;177;26470;-81
2024/02/04 05:16:12;;;;;;;15.77;9.53;;;10.80;99.90;;;;;;812047;177;26508;-80
2024/02/04 05:18:38;;;;;;;15.33;9.47;;;10.80;99.90;;;;;;808366;177;26452;-79
2024/02/04 05:21:05;;;;;;;16.27;9.13;;;10.80;99.90;;;;;;811180;173;26416;-79
2024/02/04 05:23:32;;;;;;;16.33;9.33;;;10.80;99.90;;;;;;819962;174;26569;-80
2024/02/04 05:25:58;;;;;;;15.40;10.60;;;10.80;99.90;;;;;;820095;176;26457;-80
2024/02/04 05:28:25;;;;;;;16.07;9.80;;;10.80;99.90;;;;;;819757;174;26407;-79
2024/02/04 05:30:51;;;;;;;17.37;11.07;;;10.80;99.90;;;;;;815404;174;26603;-79
2024/02/04 05:33:18;;;;;;;29.90;16.13;;;10.80;99.90;;;;;;806133;176;26450;-80
2024/02/04 05:35:45;;;;;;;32.83;16.43;;;10.70;99.90;;;;;;800935;180;26434;-78
2024/02/04 05:38:11;;;;;;;26.07;13.33;;;10.70;99.90;;;;;;801401;179;26436;-78
2024/02/04 05:40:38;;;;;;;21.23;11.47;;;10.80;99.90;;;;;;799113;179;27008;-80
2024/02/04 05:43:07;;;;;;;17.83;11.30;;;10.70;99.90;;;;;;801342;178;26435;-81
2024/02/04 05:45:33;;;;;;;16.33;10.20;;;10.70;99.90;;;;;;808607;177;26415;-81
2024/02/04 05:47:59;;;;;;;15.43;9.77;;;10.70;99.90;;;;;;808686;177;26393;-80
2024/02/04 05:50:26;;;;;;;19.27;11.30;;;10.70;99.90;;;;;;807769;177;26444;-79
2024/02/04 05:52:53;;;;;;;13.60;9.63;;;10.70;99.90;;;;;;808590;175;26461;-80
2024/02/04 05:55:19;;;;;;;17.47;10.53;;;10.70;99.90;;;;;;808565;178;26422;-80
2024/02/04 05:57:46;;;;;;;15.27;9.93;;;10.70;99.90;;;;;;808291;178;26965;-79
2024/02/04 06:00:13;;;;;;;18.20;10.37;;;10.70;99.90;;;;;;806310;174;26457;-80
2024/02/04 06:02:39;;;;;;;16.33;9.90;;;10.70;99.90;;;;;;803579;177;26458;-77
2024/02/04 06:05:06;;;;;;;17.40;10.13;;;10.70;99.90;;;;;;803807;177;26438;-77
2024/02/04 06:07:33;;;;;;;16.37;10.87;;;10.70;99.90;;;;;;810001;176;26497;-81
2024/02/04 06:10:03;;;;;;;17.17;10.03;;;10.70;99.90;;;;;;811018;177;26456;-80
2024/02/04 06:12:27;;;;;;;17.47;10.17;;;10.70;99.90;;;;;;804857;177;26426;-81
2024/02/04 06:14:53;;;;;;;16.07;9.97;;;10.70;99.90;;;;;;809135;176;26457;-79
2024/02/04 06:17:20;;;;;;;14.83;8.83;;;10.60;99.90;;;;;;808938;176;26429;-78
2024/02/04 06:19:46;;;;;;;12.53;9.10;;;10.60;99.90;;;;;;808830;174;26413;-80
2024/02/04 06:22:13;;;;;;;15.70;9.10;;;10.60;99.90;;;;;;802253;178;26424;-80
2024/02/04 06:24:40;;;;;;;14.83;9.90;;;10.70;99.90;;;;;;802217;177;26421;-80
2024/02/04 06:27:06;;;;;;;15.93;8.80;;;10.70;99.90;;;;;;801448;177;26459;-80
2024/02/04 06:29:33;;;;;;;16.63;8.97;;;10.70;99.90;;;;;;806870;177;26462;-80
2024/02/04 06:31:59;;;;;;;14.83;8.33;;;10.70;99.90;;;;;;794064;179;26475;-80
2024/02/04 06:34:26;;;;;;;16.43;9.03;;;10.70;99.90;;;;;;799442;178;26424;-80
2024/02/04 06:36:53;;;;;;;11.60;7.63;;;10.70;99.90;;;;;;799149;178;26435;-78
2024/02/04 06:39:19;;;;;;;16.10;8.80;;;10.70;99.90;;;;;;801091;176;26434;-81
2024/02/04 06:41:46;;;;;;;12.93;7.67;;;10.70;99.90;;;;;;796873;176;26492;-81
2024/02/04 06:44:12;;;;;;;12.53;7.80;;;10.70;99.90;;;;;;814782;177;26438;-79
2024/02/04 06:46:39;;;;;;;11.13;6.97;;;10.80;99.90;;;;;;804758;174;26456;-79
2024/02/04 06:49:06;;;;;;;10.63;6.73;;;10.80;99.90;;;;;;813356;177;26452;-79
2024/02/04 06:51:32;;;;;;;12.37;6.80;;;10.80;99.90;;;;;;794305;178;26469;-79
2024/02/04 06:54:00;;;;;;;8.10;5.20;;;10.80;99.90;;;;;;799835;176;26382;-79
2024/02/04 06:56:25;;;;;;;10.97;5.00;;;10.80;99.90;;;;;;811541;174;26436;-79
2024/02/04 06:58:52;;;;;;;8.70;5.60;;;10.80;99.90;;;;;;799740;174;26437;-76
2024/02/04 07:01:19;;;;;;;7.13;5.27;;;10.70;99.90;;;;;;815087;175;26436;-77
2024/02/04 07:03:45;;;;;;;7.30;5.07;;;10.80;99.90;;;;;;798833;177;26971;-77
2024/02/04 07:06:12;;;;;;;8.43;5.17;;;10.80;99.90;;;;;;806005;176;26423;-77
2024/02/04 07:08:39;;;;;;;8.30;5.10;;;10.80;99.90;;;;;;811977;175;26393;-77
2024/02/04 07:11:06;;;;;;;6.03;4.10;;;10.90;99.90;;;;;;823986;173;26426;-77
2024/02/04 07:13:32;;;;;;;10.57;5.50;;;10.80;99.90;;;;;;828206;170;26447;-77
2024/02/04 07:15:59;;;;;;;6.80;4.60;;;10.90;99.90;;;;;;826950;173;26421;-77
2024/02/04 07:18:26;;;;;;;7.23;4.57;;;10.80;99.90;;;;;;810138;173;26406;-74
2024/02/04 07:20:52;;;;;;;6.50;4.67;;;10.80;99.90;;;;;;819462;172;26429;-74
2024/02/04 07:23:19;;;;;;;8.47;4.70;;;10.80;99.90;;;;;;813568;175;26381;-77
2024/02/04 07:25:45;;;;;;;12.47;4.67;;;10.80;99.90;;;;;;805078;176;26942;-76
2024/02/04 07:28:12;;;;;;;6.30;4.73;;;10.80;99.90;;;;;;807653;175;26397;-80
2024/02/04 07:30:38;;;;;;;6.60;4.30;;;10.70;99.90;;;;;;823079;172;26461;-80
2024/02/04 07:33:05;;;;;;;6.83;4.47;;;10.70;99.90;;;;;;822376;172;26410;-80
2024/02/04 07:35:32;;;;;;;6.53;4.40;;;10.70;99.90;;;;;;815900;174;26397;-79
2024/02/04 07:37:58;;;;;;;7.17;4.90;;;10.70;99.90;;;;;;825805;173;26405;-79
2024/02/04 07:40:26;;;;;;;8.50;4.60;;;10.80;99.90;;;;;;816384;174;26417;-81
2024/02/04 07:42:52;;;;;;;9.10;4.67;;;10.70;99.90;;;;;;816968;172;26386;-79
2024/02/04 07:45:18;;;;;;;5.00;4.03;;;10.70;99.90;;;;;;821384;175;26410;-81
2024/02/04 07:47:45;;;;;;;6.03;4.90;;;10.80;99.90;;;;;;819134;175;26402;-79
2024/02/04 07:50:11;;;;;;;5.20;3.93;;;10.80;99.90;;;;;;807411;177;26418;-78
2024/02/04 07:52:38;;;;;;;6.60;3.87;;;10.80;99.90;;;;;;819344;174;26411;-79
2024/02/04 07:55:05;;;;;;;4.20;3.80;;;10.80;99.90;;;;;;814701;173;26436;-75
2024/02/04 07:57:31;;;;;;;4.43;3.57;;;10.80;99.90;;;;;;816615;174;26394;-78
2024/02/04 07:59:58;;;;;;;4.83;3.93;;;10.80;99.90;;;;;;819676;174;26433;-80
2024/02/04 08:02:24;;;;;;;6.33;4.40;;;10.80;99.90;;;;;;825802;174;26409;-81
2024/02/04 08:04:51;;;;;;;5.40;4.27;;;10.80;99.90;;;;;;825079;174;26419;-79
2024/02/04 08:07:20;;;;;;;5.70;3.83;;;10.80;99.90;;;;;;826987;174;26414;-79
2024/02/04 08:09:44;;;;;;;4.83;4.07;;;10.80;99.90;;;;;;815819;174;26406;-77
2024/02/04 08:12:11;;;;;;;6.00;4.43;;;10.90;99.90;;;;;;804529;177;26419;-79
2024/02/04 08:14:37;;;;;;;7.27;3.90;;;10.90;99.90;;;;;;803448;179;26404;-79
2024/02/04 08:17:04;;;;;;;4.50;3.53;;;10.90;99.90;;;;;;823254;173;26407;-78
2024/02/04 08:19:31;;;;;;;4.67;3.57;;;10.90;99.90;;;;;;829964;170;26785;-79
2024/02/04 08:21:58;;;;;;;5.13;3.50;;;10.90;99.90;;;;;;822387;173;26418;-79
2024/02/04 08:24:25;;;;;;;4.17;3.40;;;11.00;99.90;;;;;;810711;175;26413;-80
2024/02/04 08:26:52;;;;;;;4.90;3.67;;;10.90;99.90;;;;;;806630;172;26426;-79
2024/02/04 08:29:18;;;;;;;4.13;3.30;;;11.00;99.90;;;;;;804771;174;26460;-80
2024/02/04 08:31:55;;;;;;;4.13;3.50;;;11.00;99.90;;;;;;796276;177;26458;-79
2024/02/04 08:34:23;;;;;;;5.17;3.53;;;11.10;99.90;;;;;;781082;184;26518;-79
2024/02/04 08:36:48;;;;;;;4.80;3.23;;;11.10;99.90;;;;;;774854;182;26490;-80
2024/02/04 08:39:14;;;;;;;5.33;3.90;;;11.10;99.90;;;;;;789936;180;26977;-80
2024/02/04 08:41:41;;;;;;;4.60;3.30;;;11.10;99.90;;;;;;789397;178;26479;-79
2024/02/04 08:44:08;;;;;;;5.57;3.53;;;11.10;99.90;;;;;;783410;184;26566;-79
2024/02/04 08:46:34;;;;;;;5.37;3.70;;;11.10;99.90;;;;;;781688;183;26469;-78
2024/02/04 08:49:01;;;;;;;5.60;4.07;;;11.10;99.90;;;;;;789737;180;26471;-79
2024/02/04 08:51:27;;;;;;;5.70;4.50;;;11.10;99.90;;;;;;776811;181;26471;-80
2024/02/04 08:53:54;;;;;;;6.70;3.67;;;11.00;99.90;;;;;;795297;180;26483;-80
2024/02/04 08:56:21;;;;;;;5.27;4.03;;;11.00;99.90;;;;;;784769;181;26460;-79
2024/02/04 08:58:47;;;;;;;5.33;3.80;;;11.00;99.90;;;;;;787163;180;26645;-80
2024/02/04 09:01:14;;;;;;;6.63;4.37;;;11.00;99.90;;;;;;767237;186;26496;-80
2024/02/04 09:03:40;;;;;;;8.17;3.50;;;11.10;99.90;;;;;;786259;181;26456;-77
2024/02/04 09:06:07;;;;;;;6.90;4.00;;;11.10;99.90;;;;;;790535;179;26464;-80
2024/02/04 09:08:34;;;;;;;5.63;4.17;;;11.10;99.90;;;;;;785464;180;26474;-78
2024/02/04 09:11:01;;;;;;;5.70;3.17;;;11.10;99.90;;;;;;790837;178;26483;-77
2024/02/04 09:13:28;;;;;;;4.90;3.13;;;11.20;99.90;;;;;;791565;180;26664;-76
2024/02/04 09:15:54;;;;;;;5.90;3.07;;;11.30;99.90;;;;;;780561;181;26548;-81
2024/02/04 09:18:21;;;;;;;9.10;4.30;;;11.20;99.90;;;;;;792747;179;27085;-80
2024/02/04 09:20:48;;;;;;;4.77;3.30;;;11.20;99.90;;;;;;766674;186;26534;-81
2024/02/04 09:23:14;;;;;;;2.83;2.50;;;11.30;99.90;;;;;;784434;182;26470;-79
2024/02/04 09:25:41;;;;;;;4.70;2.80;;;11.20;99.90;;;;;;770418;181;26821;-80
2024/02/04 09:28:07;;;;;;;6.07;2.80;;;11.30;99.90;;;;;;784088;181;26467;-82
2024/02/04 09:30:34;;;;;;;2.53;2.33;;;11.30;99.90;;;;;;793991;178;27036;-84
2024/02/04 09:33:00;;;;;;;4.80;2.73;;;11.30;99.90;;;;;;781142;181;26504;-83
2024/02/04 09:35:37;;;;;;;4.50;2.90;;;11.40;99.90;;;;;;779670;181;26460;-82
2024/02/04 09:38:04;;;;;;;5.97;3.00;;;11.40;99.90;;;;;;788023;181;26509;-83
2024/02/04 09:40:33;;;;;;;3.20;2.40;;;11.40;99.90;;;;;;794023;174;26503;-80
2024/02/04 09:42:59;;;;;;;4.57;2.80;;;11.40;99.90;;;;;;768479;184;26534;-78
2024/02/04 09:45:25;;;;;;;4.77;3.07;;;11.40;99.90;;;;;;779516;183;26474;-78
2024/02/04 09:47:52;;;;;;;8.83;6.23;;;11.50;99.90;;;;;;780275;181;26531;-80
2024/02/04 09:50:19;;;;;;;6.30;4.43;;;11.40;99.90;;;;;;778604;183;26512;-80
2024/02/04 09:52:47;;;;;;;6.30;3.83;;;11.40;99.90;;;;;;740132;193;26750;-80
2024/02/04 09:55:14;;;;;;;5.40;3.47;;;11.30;99.90;;;;;;759342;187;26501;-78
2024/02/04 09:57:40;;;;;;;7.03;4.13;;;11.40;99.90;;;;;;742094;190;26551;-77
2024/02/04 10:00:14;;;;;;;7.87;4.70;;;11.40;99.90;;;;;;764749;169;26602;-78
2024/02/04 10:05:19;;;;;;;5.90;4.30;;;11.50;99.90;;;;;;827198;173;26395;-79
2024/02/04 10:07:56;;;;;;;6.27;4.03;;;11.50;99.90;;;;;;822494;169;26393;-79
2024/02/04 10:10:24;;;;;;;9.33;5.43;;;11.50;99.90;;;;;;824353;172;26484;-79
2024/02/04 10:12:50;;;;;;;9.83;6.50;;;11.50;99.90;;;;;;812164;174;26412;-80
2024/02/04 10:15:17;;;;;;;9.43;5.50;;;11.50;99.90;;;;;;812233;174;26426;-77
2024/02/04 10:17:46;;;;;;;8.67;5.77;;;11.60;99.90;;;;;;816581;173;26446;-79
2024/02/04 10:20:13;;;;;;;6.97;4.93;;;11.60;99.90;;;;;;818526;172;26452;-80
2024/02/04 10:22:39;;;;;;;11.53;6.47;;;11.60;99.90;;;;;;801862;177;26452;-80
2024/02/04 10:25:12;;;;;;;10.10;6.03;;;11.50;99.90;;;;;;813380;177;26988;-79
2024/02/04 10:27:38;;;;;;;19.67;9.63;;;11.50;99.90;;;;;;812963;177;26450;-79
2024/02/04 10:30:06;;;;;;;7.13;4.47;;;11.50;99.90;;;;;;814232;174;28106;-80
2024/02/04 10:32:33;;;;;;;4.60;3.40;;;11.40;99.90;;;;;;808726;175;26446;-80
2024/02/04 10:35:00;;;;;;;12.47;6.23;;;11.50;99.90;;;;;;802584;177;26448;-80
2024/02/04 10:37:26;;;;;;;5.97;4.17;;;11.40;99.90;;;;;;807811;176;26454;-80
2024/02/04 10:40:11;;;;;;;7.10;4.70;;;11.40;99.90;;;;;;800635;177;26451;-78
2024/02/04 10:42:59;;;;;;;11.87;6.80;;;11.40;99.90;;;;;;796908;179;26445;-80
2024/02/04 10:45:26;;;;;;;16.00;8.63;;;11.50;99.90;;;;;;795532;178;26453;-78
2024/02/04 10:48:07;;;;;;;13.50;7.70;;;11.50;99.90;;;;;;796490;178;26442;-80
2024/02/04 10:50:39;;;;;;;8.40;4.60;;;11.60;99.90;;;;;;798348;177;26450;-82
2024/02/04 10:53:07;;;;;;;9.47;4.87;;;11.60;99.90;;;;;;798742;177;26498;-80
2024/02/04 10:55:33;;;;;;;9.53;6.00;;;11.60;99.90;;;;;;800674;174;26422;-80
2024/02/04 10:58:00;;;;;;;6.87;4.67;;;11.60;99.90;;;;;;799616;176;26453;-80
2024/02/04 11:00:26;;;;;;;7.67;5.00;;;11.60;99.90;;;;;;812642;173;26452;-76
2024/02/04 11:02:55;;;;;;;6.77;3.97;;;11.60;99.90;;;;;;801990;176;26445;-81
2024/02/04 11:05:21;;;;;;;7.40;4.40;;;11.60;99.90;;;;;;797403;179;26434;-76
2024/02/04 11:07:48;;;;;;;11.63;6.13;;;11.60;99.90;;;;;;800562;176;26469;-79
2024/02/04 11:10:15;;;;;;;14.60;7.50;;;11.70;99.90;;;;;;798651;175;26496;-79
2024/02/04 11:12:41;;;;;;;6.43;4.10;;;11.70;99.90;;;;;;797061;179;26441;-78
2024/02/04 11:15:08;;;;;;;15.63;8.23;;;11.70;99.90;;;;;;797284;177;26503;-79
2024/02/04 11:17:51;;;;;;;18.07;7.90;;;11.70;99.90;;;;;;798570;175;26452;-78
2024/02/04 11:20:39;;;;;;;20.67;9.43;;;11.80;99.90;;;;;;804599;176;26429;-79
2024/02/04 11:23:18;;;;;;;6.23;4.03;;;11.90;99.90;;;;;;809485;175;26448;-75
2024/02/04 11:25:45;;;;;;;8.37;4.50;;;11.80;99.90;;;;;;797238;177;27012;-79
2024/02/04 11:28:12;;;;;;;13.70;6.50;;;12.00;99.90;;;;;;796752;178;26430;-80
2024/02/04 11:30:39;;;;;;;36.37;16.23;;;12.00;99.90;;;;;;802089;177;26474;-80
2024/02/04 11:33:05;;;;;;;19.93;10.23;;;12.30;99.90;;;;;;810395;177;26446;-77
2024/02/04 11:35:34;;;;;;;12.97;7.20;;;12.30;99.90;;;;;;815555;176;26451;-78
2024/02/04 11:38:03;;;;;;;38.50;16.00;;;12.40;99.90;;;;;;814478;177;26415;-79
2024/02/04 11:40:31;;;;;;;26.63;12.00;;;12.30;99.90;;;;;;801846;177;26482;-79
2024/02/04 11:43:04;;;;;;;12.80;6.47;;;12.20;99.90;;;;;;800433;177;26484;-78
2024/02/04 11:45:32;;;;;;;6.90;4.43;;;12.10;99.90;;;;;;807688;177;26422;-80
2024/02/04 11:48:00;;;;;;;11.73;6.43;;;12.00;99.90;;;;;;797194;177;26583;-80
2024/02/04 11:50:29;;;;;;;9.13;5.23;;;12.00;99.90;;;;;;799982;174;27026;-79
2024/02/04 11:52:55;;;;;;;9.23;4.27;;;11.90;99.90;;;;;;799965;177;26429;-78
2024/02/04 11:55:22;;;;;;;21.97;11.73;;;11.90;99.90;;;;;;802074;176;26429;-77
2024/02/04 11:57:48;;;;;;;33.73;17.10;;;11.90;99.90;;;;;;799146;177;26442;-79
2024/02/04 12:00:19;;;;;;;37.27;18.83;;;11.90;99.90;;;;;;801010;177;26482;-80
2024/02/04 12:02:49;;;;;;;20.13;9.57;;;12.00;99.90;;;;;;805885;177;27135;-79
2024/02/04 12:05:18;;;;;;;29.67;13.77;;;12.00;99.90;;;;;;807060;174;26422;-79
2024/02/04 12:07:45;;;;;;;11.63;6.30;;;12.00;99.90;;;;;;800344;176;26460;-78
2024/02/04 12:10:12;;;;;;;30.30;13.73;;;12.00;99.90;;;;;;802037;176;26466;-79
2024/02/04 12:12:38;;;;;;;36.80;18.10;;;12.00;99.90;;;;;;801876;177;26436;-77
2024/02/04 12:15:05;;;;;;;16.83;7.57;;;12.00;99.90;;;;;;806375;177;28040;-78
2024/02/04 12:17:32;;;;;;;15.30;8.50;;;12.00;99.90;;;;;;801982;176;26452;-77
2024/02/04 12:19:58;;;;;;;23.67;10.90;;;11.90;99.90;;;;;;800187;173;26476;-79
2024/02/04 12:22:25;;;;;;;27.53;13.63;;;11.90;99.90;;;;;;798965;177;26978;-78
2024/02/04 12:24:52;;;;;;;18.13;9.30;;;11.80;99.90;;;;;;803711;177;26597;-80
2024/02/04 12:27:18;;;;;;;18.23;10.03;;;11.70;99.90;;;;;;799047;177;26449;-80
2024/02/04 12:29:45;;;;;;;26.57;14.87;;;11.70;99.90;;;;;;800244;174;26437;-79
2024/02/04 12:32:13;;;;;;;37.63;21.13;;;11.80;99.90;;;;;;803483;177;26411;-79
2024/02/04 12:34:43;;;;;;;53.43;25.23;;;11.90;99.90;;;;;;798409;177;26427;-78
2024/02/04 12:37:10;;;;;;;31.03;15.07;;;11.90;99.90;;;;;;797180;177;26437;-79
2024/02/04 12:39:37;;;;;;;28.83;16.00;;;11.80;99.90;;;;;;798018;177;26465;-78